Portada
METAR-TAF:

METAR-TAF

Aeropuertos :

El Oued, Argelia

latitud: 33-30-47N, longitud: 006-46-57E, altitud: 62 m

Observación

El informe se hizo hace 29 minutos, a las 10:00 UTC
Viento 5 kt del suroeste
Temperatura 34°C
Humedad 28%
Presión 1005 hPa
Visibilidad: 4000 m
calima,

METAR: DAUO 191000Z 22005KT 4000 HZ NSC 34/13 Q1005

Hora: 11:29 (10:29 UTC)

Pronóstico

El informe se hizo hace 2 horas y 29 minutos, a las 08:00 UTC
Pronóstico válido del 19 a las 09 UTC al 19 a las 18 UTC
Viento 12 kt del oeste-suroeste
Visibilidad: 8000 m
Probabilidad 30%
del 19 a las 09 UTC al 19 a las 12 UTC
Visibilidad: 3000 m
arena,

TAF: DAUO 190800Z 1909/1918 24012KT 8000 NSC PROB30 1909/1912 3000 SA

Observaciones y pronósticos meteorológicos de más de 4000 aeropuertos (mensajes METAR y TAF).

Los puntos amarillos y rojos representan las estaciones disponibles.

Ponga el ratón en el punto deseado para ver el nombre de la estación.

Haga clic para ver las observaciones y los pronósticos meteorológicos.

Para cambiar el mapa : haga clic en los botones verdes con una cruz de color negro para hacer un zoom, en el botón verde con un guión para alejar o en las flechas verdes para mapas adyacentes.


METAR-TAF: